Time;durP1;ratioP1;P1;durP2;ratioP2;P2;SDS_P1;SDS_P2;PMS_P1;PMS_P2;Temp;Humidity;BMP_temperature;BMP_pressure;BME280_temperature;BME280_humidity;BME280_pressure;Samples;Min_cycle;Max_cycle;Signal;HPM_P1;HPM_P2
2023/04/08 00:01:38;;;;;;;58.15;34.45;;;154.10;2252.80;;;;;;4908064;29;20037;-80
2023/04/08 00:04:04;;;;;;;57.13;34.05;;;153.90;2252.80;;;;;;4909246;29;20038;-80
2023/04/08 00:06:30;;;;;;;61.63;36.00;;;153.90;2252.80;;;;;;4892519;29;20093;-79
2023/04/08 00:08:56;;;;;;;61.67;36.03;;;153.70;2252.80;;;;;;4892063;29;20489;-79
2023/04/08 00:11:22;;;;;;;61.33;36.08;;;128.90;2252.80;;;;;;4909591;29;20048;-80
2023/04/08 00:13:48;;;;;;;60.13;35.83;;;128.90;2252.80;;;;;;4891510;29;20495;-80
2023/04/08 00:16:14;;;;;;;57.35;35.00;;;153.60;2252.80;;;;;;4909724;29;20029;-78
2023/04/08 00:18:40;;;;;;;59.55;35.45;;;153.60;2252.80;;;;;;4891672;29;20084;-78
2023/04/08 00:21:05;;;;;;;63.72;37.38;;;153.90;2252.80;;;;;;4910523;29;20088;-79
2023/04/08 00:23:31;;;;;;;58.30;35.33;;;153.60;2252.80;;;;;;4913000;29;20025;-78
2023/04/08 00:25:57;;;;;;;67.20;38.88;;;153.60;2252.80;;;;;;4892046;29;20028;-78
2023/04/08 00:29:13;;;;;;;68.72;38.85;;;128.80;2252.80;;;;;;4892060;29;20052;-78
2023/04/08 00:31:39;;;;;;;71.68;40.50;;;128.70;2252.80;;;;;;4905944;29;20561;-79
2023/04/08 00:34:05;;;;;;;73.78;40.83;;;128.60;2252.80;;;;;;4907173;29;20119;-79
2023/04/08 00:36:30;;;;;;;76.72;42.63;;;128.70;2252.80;;;;;;4907480;29;20036;-79
2023/04/08 00:38:56;;;;;;;72.65;40.65;;;128.80;2252.80;;;;;;4907400;29;20043;-79
2023/04/08 00:41:22;;;;;;;75.40;41.80;;;128.80;2252.80;;;;;;4908111;29;20032;-79
2023/04/08 00:43:48;;;;;;;69.35;41.30;;;128.80;2252.80;;;;;;4906701;29;20032;-79
2023/04/08 00:46:13;;;;;;;78.05;44.38;;;128.80;2252.80;;;;;;4906857;29;20057;-79
2023/04/08 00:48:39;;;;;;;74.30;41.45;;;128.80;2252.80;;;;;;4906679;29;20088;-78
2023/04/08 00:51:06;;;;;;;83.38;45.03;;;128.90;2252.80;;;;;;4906984;29;20048;-78
2023/04/08 00:53:31;;;;;;;78.20;44.13;;;128.80;2252.80;;;;;;4907250;29;20028;-79
2023/04/08 00:55:58;;;;;;;75.47;42.30;;;128.80;2252.80;;;;;;4906890;29;20039;-80
2023/04/08 00:58:24;;;;;;;69.95;41.08;;;128.90;2252.80;;;;;;4907241;29;20062;-78
2023/04/08 01:00:57;;;;;;;69.05;39.08;;;128.80;2252.80;;;;;;4905667;29;20056;-79
2023/04/08 01:03:42;;;;;;;64.35;37.63;;;128.80;2252.80;;;;;;4907059;29;20032;-80
2023/04/08 01:06:19;;;;;;;;;;;128.80;2252.80;;;;;;4906617;29;20024;-79
2023/04/08 01:08:46;;;;;;;64.03;36.63;;;128.80;2252.80;;;;;;4906885;29;19911;-78
2023/04/08 01:11:13;;;;;;;68.70;38.83;;;128.70;2252.80;;;;;;4906464;29;20096;-79
2023/04/08 01:13:40;;;;;;;62.55;37.13;;;128.70;2252.80;;;;;;4905363;29;20027;-79
2023/04/08 01:16:11;;;;;;;64.65;37.38;;;128.70;2252.80;;;;;;4906361;29;20033;-79
2023/04/08 01:18:38;;;;;;;65.15;39.08;;;128.70;2252.80;;;;;;4906886;29;20109;-78
2023/04/08 01:21:06;;;;;;;68.78;39.03;;;128.70;2252.80;;;;;;4906997;29;20088;-79
2023/04/08 01:23:59;;;;;;;71.32;40.60;;;128.70;2252.80;;;;;;4907710;29;20035;-78
2023/04/08 01:26:25;;;;;;;66.18;38.60;;;128.70;2252.80;;;;;;4907448;29;20032;-78
2023/04/08 01:28:56;;;;;;;68.00;38.50;;;128.70;2252.80;;;;;;4906674;29;20056;-78
2023/04/08 01:31:23;;;;;;;67.28;38.70;;;128.70;2252.80;;;;;;4906870;29;20033;-79
2023/04/08 01:33:50;;;;;;;66.55;38.78;;;128.60;2252.80;;;;;;4908524;29;20032;-79
2023/04/08 01:36:17;;;;;;;62.75;38.58;;;128.50;2252.80;;;;;;4907745;29;20029;-78
2023/04/08 01:38:45;;;;;;;63.90;38.10;;;128.70;2252.80;;;;;;4907501;29;20035;-79
2023/04/08 01:41:10;;;;;;;68.55;38.33;;;128.60;2252.80;;;;;;4908065;29;20039;-79
2023/04/08 01:43:40;;;;;;;69.78;38.35;;;128.50;2252.80;;;;;;4907835;29;20390;-78
2023/04/08 01:46:07;;;;;;;64.95;37.65;;;128.50;2252.80;;;;;;4908074;29;20040;-79
2023/04/08 01:48:34;;;;;;;71.85;40.58;;;128.50;2252.80;;;;;;4907192;29;20117;-79
2023/04/08 01:51:01;;;;;;;73.22;40.55;;;128.40;2252.80;;;;;;4908166;29;20043;-79
2023/04/08 01:53:27;;;;;;;66.28;38.53;;;128.30;2252.80;;;;;;4905857;29;20481;-78
2023/04/08 01:56:06;;;;;;;66.97;38.72;;;128.30;2252.80;;;;;;4891943;29;20095;-80
2023/04/08 01:58:38;;;;;;;72.43;40.40;;;128.30;2252.80;;;;;;4910529;29;20025;-79
2023/04/08 02:01:09;;;;;;;69.57;39.35;;;128.30;2252.80;;;;;;4909527;29;20056;-79
2023/04/08 02:03:36;;;;;;;66.55;38.00;;;128.20;2252.80;;;;;;4910479;29;20033;-80
2023/04/08 02:06:02;;;;;;;65.25;37.90;;;128.20;2252.80;;;;;;4911238;29;20044;-79
2023/04/08 02:08:27;;;;;;;67.57;38.25;;;128.20;2252.80;;;;;;4911086;29;20025;-79
2023/04/08 02:10:53;;;;;;;62.90;37.25;;;128.10;2252.80;;;;;;4893837;29;20475;-79
2023/04/08 02:13:19;;;;;;;67.45;38.22;;;128.10;2252.80;;;;;;4893235;29;20119;-79
2023/04/08 02:15:53;;;;;;;64.78;37.92;;;128.10;2252.80;;;;;;4906459;29;20032;-79
2023/04/08 02:18:28;;;;;;;67.13;38.05;;;128.10;2252.80;;;;;;4906619;29;20048;-79
2023/04/08 02:21:06;;;;;;;67.65;37.80;;;128.10;2252.80;;;;;;4907769;29;20040;-79
2023/04/08 02:23:34;;;;;;;62.65;36.92;;;128.20;2252.80;;;;;;4907026;29;20033;-79
2023/04/08 02:26:01;;;;;;;66.45;39.13;;;128.10;2252.80;;;;;;4906431;29;20056;-79
2023/04/08 02:31:50;;;;;;;68.88;38.80;;;128.10;2252.80;;;;;;4911103;29;20411;-79
2023/04/08 02:34:20;;;;;;;62.80;37.92;;;128.10;2252.80;;;;;;4911964;29;20020;-79
2023/04/08 02:36:46;;;;;;;63.85;36.85;;;128.10;2252.80;;;;;;4911924;29;20040;-78
2023/04/08 02:39:12;;;;;;;64.40;38.00;;;128.10;2252.80;;;;;;4906584;29;20032;-79
2023/04/08 02:41:38;;;;;;;71.68;39.85;;;128.10;2252.80;;;;;;4908561;29;20032;-78
2023/04/08 02:44:04;;;;;;;62.28;37.20;;;128.10;2252.80;;;;;;4905682;29;20103;-79
2023/04/08 02:46:30;;;;;;;68.22;37.20;;;128.00;2252.80;;;;;;4888372;29;20483;-79
2023/04/08 02:48:55;;;;;;;67.75;38.38;;;103.30;2227.20;;;;;;4905099;29;20035;-79
2023/04/08 02:51:21;;;;;;;65.10;37.50;;;103.30;2227.20;;;;;;4903761;29;20040;-78
2023/04/08 02:53:47;;;;;;;62.30;36.60;;;103.30;2227.20;;;;;;4903993;29;20084;-80
2023/04/08 02:56:12;;;;;;;66.25;36.03;;;103.20;2227.20;;;;;;4904786;29;20024;-79
2023/04/08 02:58:38;;;;;;;65.00;36.50;;;103.20;2227.20;;;;;;4903592;29;20029;-80
2023/04/08 03:01:04;;;;;;;64.85;36.53;;;103.20;2227.20;;;;;;4904220;29;20075;-79
2023/04/08 03:03:30;;;;;;;61.35;35.20;;;103.20;2227.20;;;;;;4904639;29;20057;-79
2023/04/08 03:05:57;;;;;;;63.33;35.75;;;103.20;2227.20;;;;;;4904565;29;20032;-78
2023/04/08 03:08:23;;;;;;;59.53;34.00;;;103.20;2227.20;;;;;;4904437;29;20024;-80
2023/04/08 03:10:49;;;;;;;57.72;33.50;;;103.20;2227.20;;;;;;4904313;29;20037;-79
2023/04/08 03:13:15;;;;;;;59.97;35.00;;;103.20;2227.20;;;;;;4904137;29;20025;-79
2023/04/08 03:15:41;;;;;;;61.88;35.15;;;103.20;2227.20;;;;;;4903749;29;20052;-79
2023/04/08 03:18:07;;;;;;;60.60;35.05;;;103.20;1894.40;;;;;;4903746;29;20035;-79
2023/04/08 03:20:33;;;;;;;58.72;35.50;;;103.20;2227.20;;;;;;4903914;29;20028;-79
2023/04/08 03:22:59;;;;;;;60.05;35.15;;;103.20;2227.20;;;;;;4903795;29;20033;-79
2023/04/08 03:25:25;;;;;;;58.85;34.53;;;103.10;2227.20;;;;;;4903744;29;20135;-79
2023/04/08 03:27:51;;;;;;;64.97;36.28;;;103.10;2227.20;;;;;;4903251;29;20032;-79
2023/04/08 03:30:16;;;;;;;63.67;36.90;;;103.00;2227.20;;;;;;4904470;29;20025;-79
2023/04/08 03:32:42;;;;;;;65.38;37.05;;;103.00;2227.20;;;;;;4906814;29;20052;-79
2023/04/08 03:35:09;;;;;;;66.40;37.40;;;103.10;2227.20;;;;;;4907982;29;20048;-79
2023/04/08 03:37:36;;;;;;;176.52;45.28;;;103.00;2227.20;;;;;;4902537;29;20127;-79
2023/04/08 03:40:02;;;;;;;96.13;46.70;;;103.00;2227.20;;;;;;4885952;29;20505;-79
2023/04/08 03:42:28;;;;;;;90.15;44.70;;;102.90;2227.20;;;;;;4902327;29;20494;-79
2023/04/08 03:44:54;;;;;;;92.00;44.80;;;102.90;2227.20;;;;;;4902848;29;20094;-79
2023/04/08 03:47:19;;;;;;;77.90;40.72;;;102.90;2227.20;;;;;;4902562;29;20031;-79
2023/04/08 03:49:45;;;;;;;88.43;42.83;;;102.90;2227.20;;;;;;4902114;29;20043;-79
2023/04/08 03:52:11;;;;;;;70.55;36.30;;;102.90;2227.20;;;;;;4885177;29;20072;-79
2023/04/08 03:54:36;;;;;;;67.75;36.28;;;102.80;2227.20;;;;;;4903064;29;20029;-79
2023/04/08 03:57:02;;;;;;;72.20;35.03;;;102.80;2227.20;;;;;;4885456;29;20025;-79
2023/04/08 03:59:28;;;;;;;67.15;36.15;;;102.80;2227.20;;;;;;4902570;29;20029;-79
2023/04/08 04:01:53;;;;;;;66.28;36.38;;;102.80;2227.20;;;;;;4901882;29;20056;-79
2023/04/08 04:04:19;;;;;;;142.88;41.60;;;102.80;2227.20;;;;;;4902153;29;20077;-78
2023/04/08 04:06:45;;;;;;;99.10;39.13;;;102.80;2227.20;;;;;;4901458;29;20028;-79
2023/04/08 04:09:11;;;;;;;88.95;40.50;;;102.70;2227.20;;;;;;4901672;29;20028;-79
2023/04/08 04:11:37;;;;;;;71.60;38.42;;;102.70;2227.20;;;;;;4901412;29;20041;-79
2023/04/08 04:14:03;;;;;;;74.15;38.38;;;102.70;2227.20;;;;;;4901667;29;20047;-79
2023/04/08 04:16:29;;;;;;;80.30;39.20;;;102.70;2227.20;;;;;;4902078;29;20060;-78
2023/04/08 04:18:54;;;;;;;69.15;37.90;;;102.70;2227.20;;;;;;4901404;29;20032;-79
2023/04/08 04:21:20;;;;;;;65.35;36.33;;;102.70;2227.20;;;;;;4901313;29;20071;-79
2023/04/08 04:23:46;;;;;;;67.20;37.17;;;102.80;2227.20;;;;;;4903282;29;20040;-79
2023/04/08 04:26:12;;;;;;;61.92;34.58;;;102.80;2227.20;;;;;;4903805;29;20047;-80
2023/04/08 04:32:00;;;;;;;59.20;34.33;;;102.80;2227.20;;;;;;4907197;29;20043;-80
2023/04/08 04:34:25;;;;;;;61.10;35.15;;;102.90;2227.20;;;;;;4907835;29;20033;-80
2023/04/08 04:36:51;;;;;;;64.30;36.03;;;102.80;2227.20;;;;;;4909743;29;20032;-80
2023/04/08 04:39:17;;;;;;;58.85;34.92;;;102.80;2227.20;;;;;;4909248;29;20108;-80
2023/04/08 04:42:21;;;;;;;67.47;38.85;;;102.90;2227.20;;;;;;4910182;29;20033;-80
2023/04/08 04:44:47;;;;;;;65.13;36.40;;;103.00;2227.20;;;;;;4909898;29;20057;-80
2023/04/08 04:47:13;;;;;;;76.75;39.70;;;103.00;2227.20;;;;;;4909778;29;20025;-80
2023/04/08 04:49:39;;;;;;;77.63;41.67;;;103.00;2227.20;;;;;;4908897;29;20467;-80
2023/04/08 04:52:04;;;;;;;83.53;43.17;;;103.10;2227.20;;;;;;4906578;29;20045;-79
2023/04/08 04:54:30;;;;;;;75.55;40.58;;;103.10;2227.20;;;;;;4905049;29;20092;-79
2023/04/08 05:00:18;;;;;;;76.07;41.72;;;103.10;2227.20;;;;;;4906018;29;20047;-79
2023/04/08 05:02:43;;;;;;;86.32;44.13;;;103.20;2227.20;;;;;;4889364;29;20048;-80
2023/04/08 05:05:09;;;;;;;110.47;55.00;;;103.10;2227.20;;;;;;4889653;29;20032;-78
2023/04/08 05:07:35;;;;;;;103.72;51.75;;;102.90;2227.20;;;;;;4889200;29;20088;-79
2023/04/08 05:10:02;;;;;;;101.68;53.13;;;103.00;2227.20;;;;;;4906956;29;20031;-79
2023/04/08 05:12:28;;;;;;;170.00;82.68;;;103.10;2227.20;;;;;;4907170;29;20052;-79
2023/04/08 05:14:54;;;;;;;104.25;49.00;;;103.20;2227.20;;;;;;4907183;29;20021;-80
2023/04/08 05:17:19;;;;;;;187.35;98.40;;;128.00;2252.80;;;;;;4907496;29;20093;-79
2023/04/08 05:19:45;;;;;;;107.53;54.25;;;128.20;2252.80;;;;;;4910098;29;20033;-80
2023/04/08 05:22:11;;;;;;;115.03;62.83;;;128.30;2252.80;;;;;;4896037;29;20024;-80
2023/04/08 05:24:36;;;;;;;90.00;46.08;;;128.40;2252.80;;;;;;4913378;29;20029;-79
2023/04/08 05:27:02;;;;;;;94.97;48.45;;;128.50;2252.80;;;;;;4896616;29;20035;-80
2023/04/08 05:29:28;;;;;;;95.43;52.63;;;128.50;2252.80;;;;;;4894290;29;20032;-79
2023/04/08 05:31:55;;;;;;;94.72;48.25;;;128.90;2252.80;;;;;;4914073;29;20032;-80
2023/04/08 05:34:21;;;;;;;93.25;48.72;;;128.50;2252.80;;;;;;4913149;29;20080;-79
2023/04/08 05:36:51;;;;;;;93.60;51.85;;;128.50;2252.80;;;;;;4913138;29;20028;-79
2023/04/08 05:39:20;;;;;;;85.45;45.70;;;128.40;2252.80;;;;;;4913152;29;20025;-79
2023/04/08 05:43:08;;;;;;;91.85;46.42;;;128.40;2252.80;;;;;;4912243;29;20566;-80
2023/04/08 05:45:34;;;;;;;91.78;46.53;;;128.30;2252.80;;;;;;4912139;29;20029;-80
2023/04/08 05:48:00;;;;;;;95.80;47.70;;;128.20;2252.80;;;;;;4893112;29;20526;-78
2023/04/08 05:50:25;;;;;;;89.55;46.65;;;128.10;2252.80;;;;;;4894912;29;20033;-79
2023/04/08 05:52:51;;;;;;;100.82;50.70;;;128.20;2252.80;;;;;;4893184;29;20471;-79
2023/04/08 05:55:18;;;;;;;93.78;48.58;;;128.20;2252.80;;;;;;4893624;29;20024;-79
2023/04/08 05:57:43;;;;;;;97.88;50.42;;;128.20;2252.80;;;;;;4910215;29;20115;-79
2023/04/08 06:00:10;;;;;;;94.10;50.03;;;128.30;2252.80;;;;;;4909023;29;20051;-79
2023/04/08 06:02:36;;;;;;;86.15;44.85;;;128.40;2252.80;;;;;;4908082;29;20036;-78
2023/04/08 06:05:05;;;;;;;105.05;53.13;;;128.30;2252.80;;;;;;4889882;29;20029;-79
2023/04/08 06:07:31;;;;;;;108.95;55.85;;;128.50;2252.80;;;;;;4907274;29;20048;-78
2023/04/08 06:09:57;;;;;;;83.72;45.28;;;128.70;2252.80;;;;;;4907275;29;20017;-78
2023/04/08 06:12:26;;;;;;;76.95;42.38;;;;;;;;;;4909809;29;20040;-79
2023/04/08 06:14:55;;;;;;;70.97;40.67;;;153.70;2252.80;;;;;;4909889;29;20416;-80
2023/04/08 06:17:21;;;;;;;80.38;43.30;;;128.80;2252.80;;;;;;4906876;29;20066;-78
2023/04/08 06:19:47;;;;;;;75.00;42.92;;;128.90;2252.80;;;;;;4891201;29;20040;-80
2023/04/08 06:22:12;;;;;;;78.50;44.03;;;128.80;2252.80;;;;;;4907273;29;20036;-79
2023/04/08 06:24:38;;;;;;;75.57;44.20;;;128.90;2252.80;;;;;;4908926;29;20028;-79
2023/04/08 06:30:08;;;;;;;81.95;45.50;;;;;;;;;;4907281;29;20067;-79
2023/04/08 06:32:34;;;;;;;70.15;40.30;;;;;;;;;;4889600;29;20435;-79
2023/04/08 06:35:00;;;;;;;65.10;38.10;;;;;;;;;;4889687;29;20024;-79
2023/04/08 06:37:26;;;;;;;69.55;39.70;;;;;;;;;;4905982;29;20052;-80
2023/04/08 06:39:52;;;;;;;66.57;38.80;;;;;;;;;;4906587;29;20024;-79
2023/04/08 06:42:18;;;;;;;76.70;42.88;;;;;;;;;;4891524;29;20040;-79
2023/04/08 06:44:44;;;;;;;69.00;40.33;;;;;;;;;;4906393;29;20053;-79
2023/04/08 06:47:10;;;;;;;70.90;39.83;;;;;;;;;;4907280;29;20040;-80
2023/04/08 06:49:36;;;;;;;66.15;38.95;;;;;;;;;;4907142;29;20096;-79
2023/04/08 06:52:02;;;;;;;67.13;39.58;;;;;;;;;;4908239;29;20506;-80
2023/04/08 06:54:28;;;;;;;67.30;39.03;;;154.40;2252.80;;;;;;4909662;29;20025;-80
2023/04/08 06:56:54;;;;;;;66.15;38.83;;;179.20;2252.80;;;;;;4892802;29;20028;-80
2023/04/08 06:59:20;;;;;;;64.63;38.25;;;154.40;2252.80;;;;;;4907958;29;20048;-80
2023/04/08 07:01:45;;;;;;;70.70;40.95;;;154.50;2252.80;;;;;;4906758;29;20135;-79
2023/04/08 07:04:11;;;;;;;64.55;38.53;;;179.20;2201.60;;;;;;4907581;29;20025;-78
2023/04/08 07:06:37;;;;;;;56.13;34.53;;;179.20;2252.80;;;;;;4905391;29;20524;-79
2023/04/08 07:09:03;;;;;;;61.38;37.05;;;154.50;2252.80;;;;;;4905969;29;20104;-79
2023/04/08 07:11:29;;;;;;;57.00;34.55;;;154.40;2252.80;;;;;;4904038;29;20036;-79
2023/04/08 07:13:55;;;;;;;60.60;35.88;;;154.40;2252.80;;;;;;4888194;29;20541;-79
2023/04/08 07:16:20;;;;;;;57.90;35.60;;;154.40;2252.80;;;;;;4905055;29;20037;-79
2023/04/08 07:18:46;;;;;;;56.70;35.28;;;179.30;1945.60;;;;;;4887590;29;20028;-78
2023/04/08 07:21:12;;;;;;;66.18;40.35;;;179.30;2252.80;;;;;;4904861;29;20025;-79
2023/04/08 07:23:37;;;;;;;62.22;36.33;;;179.40;1868.80;;;;;;4903925;29;20028;-79
2023/04/08 07:26:06;;;;;;;61.92;35.05;;;179.80;2252.80;;;;;;4905707;29;20519;-79
2023/04/08 07:28:32;;;;;;;58.85;35.45;;;179.60;2252.80;;;;;;4905772;29;20561;-79
2023/04/08 07:31:13;;;;;;;77.57;40.72;;;;;;;;;;4904037;29;20045;-79
2023/04/08 07:33:39;;;;;;;418.92;163.10;;;;;;;;;;4904826;29;20020;-79
2023/04/08 07:36:05;;;;;;;130.50;69.32;;;;;;;;;;4890051;29;20028;-79
2023/04/08 07:38:31;;;;;;;68.68;40.78;;;;;;;;;;4907672;29;20119;-79
2023/04/08 07:40:57;;;;;;;73.00;45.35;;;205.20;2252.80;;;;;;4906304;29;20036;-79
2023/04/08 07:43:23;;;;;;;64.88;39.65;;;205.10;2252.80;;;;;;4902303;29;20121;-78
2023/04/08 07:45:49;;;;;;;54.13;34.25;;;205.20;2252.80;;;;;;4889493;29;20056;-79
2023/04/08 07:48:15;;;;;;;62.90;37.67;;;;;;;;;;4901209;29;20034;-79
2023/04/08 07:50:41;;;;;;;56.25;35.67;;;;;;;;;;4884274;29;20035;-78
2023/04/08 07:53:07;;;;;;;49.65;31.25;;;;;;;;;;4883951;29;20028;-78
2023/04/08 07:55:33;;;;;;;48.20;31.52;;;230.70;2252.80;;;;;;4900398;29;20032;-79
2023/04/08 07:58:00;;;;;;;52.67;32.83;;;205.50;2252.80;;;;;;4900687;29;20031;-78
2023/04/08 08:00:26;;;;;;;57.72;36.08;;;;;;;;;;4900406;29;20049;-78
2023/04/08 08:02:52;;;;;;;51.17;33.00;;;205.70;2252.80;;;;;;4900649;29;20044;-78
2023/04/08 08:05:18;;;;;;;49.22;31.90;;;230.60;2252.80;;;;;;4900517;29;20497;-79
2023/04/08 08:07:44;;;;;;;49.00;32.08;;;;;;;;;;4882735;29;20033;-78
2023/04/08 08:10:10;;;;;;;45.22;29.73;;;;;;;;;;4900234;29;20051;-78
2023/04/08 08:13:15;;;;;;;46.97;30.08;;;;;;;;;;4899204;29;20059;-78
2023/04/08 08:15:41;;;;;;;47.47;30.83;;;;;;;;;;4899556;29;20033;-78
2023/04/08 08:18:07;;;;;;;48.03;31.23;;;;;;;;;;4899416;29;20152;-79
2023/04/08 08:20:35;;;;;;;47.33;30.52;;;;;;;;;;4899521;29;20171;-78
2023/04/08 08:23:01;;;;;;;44.33;27.92;;;;;;;;;;4882422;29;20036;-78
2023/04/08 08:25:27;;;;;;;41.15;28.52;;;;;;;;;;4882067;29;20037;-79
2023/04/08 08:27:54;;;;;;;33.72;23.23;;;231.10;2252.80;;;;;;4898739;29;20463;-78
2023/04/08 08:30:21;;;;;;;35.20;21.48;;;230.80;2252.80;;;;;;4899045;29;20498;-78
2023/04/08 08:32:47;;;;;;;63.13;32.67;;;230.50;2252.80;;;;;;4899212;29;20051;-78
2023/04/08 08:35:13;;;;;;;36.47;23.00;;;230.60;2252.80;;;;;;4899544;29;20029;-79
2023/04/08 08:37:39;;;;;;;41.97;25.20;;;230.90;2252.80;;;;;;4899441;29;20044;-79
2023/04/08 08:40:05;;;;;;;56.28;27.60;;;230.80;2252.80;;;;;;4899156;29;20029;-78
2023/04/08 08:42:31;;;;;;;29.67;19.15;;;230.70;2252.80;;;;;;4884199;29;20029;-78
2023/04/08 08:44:57;;;;;;;33.92;22.67;;;230.50;2252.80;;;;;;4902267;29;20051;-78
2023/04/08 08:47:22;;;;;;;33.35;21.13;;;230.40;2252.80;;;;;;4902853;29;20084;-78
2023/04/08 08:49:48;;;;;;;29.33;20.42;;;230.80;2252.80;;;;;;4886261;29;20029;-78
2023/04/08 08:52:17;;;;;;;28.23;18.02;;;231.30;2252.80;;;;;;4902452;29;20112;-78
2023/04/08 08:54:45;;;;;;;27.58;18.52;;;231.20;2252.80;;;;;;4885871;29;20036;-78
2023/04/08 08:57:19;;;;;;;31.88;21.15;;;231.20;2252.80;;;;;;4902631;29;20088;-78
2023/04/08 08:59:46;;;;;;;38.08;25.27;;;230.80;2252.80;;;;;;4903978;29;20092;-79
2023/04/08 09:02:30;;;;;;;30.80;20.15;;;231.10;2252.80;;;;;;4905446;29;20049;-79
2023/04/08 09:05:03;;;;;;;28.98;19.10;;;231.20;2252.80;;;;;;4885373;29;20041;-80
2023/04/08 09:07:35;;;;;;;30.70;19.13;;;230.90;2252.80;;;;;;4902491;29;20168;-78
2023/04/08 09:10:03;;;;;;;36.55;21.48;;;231.00;2252.80;;;;;;4887407;29;20036;-79
2023/04/08 09:12:30;;;;;;;31.58;20.90;;;231.20;2252.80;;;;;;4889831;29;20040;-78
2023/04/08 09:15:07;;;;;;;30.15;18.75;;;231.00;2252.80;;;;;;4903430;29;20033;-78
2023/04/08 09:17:37;;;;;;;28.38;18.70;;;231.20;2252.80;;;;;;4886503;29;20036;-78
2023/04/08 09:20:08;;;;;;;36.15;22.77;;;231.20;2252.80;;;;;;4905755;29;20025;-78
2023/04/08 09:22:48;;;;;;;29.75;19.65;;;231.20;2252.80;;;;;;4903691;29;20029;-78
2023/04/08 09:25:42;;;;;;;33.28;21.35;;;231.20;2252.80;;;;;;4907615;29;20068;-79
2023/04/08 09:28:20;;;;;;;29.10;19.10;;;231.10;2252.80;;;;;;4830364;29;20036;-79
2023/04/08 09:30:46;;;;;;;31.27;20.25;;;231.00;2252.80;;;;;;4829776;29;20041;-79
2023/04/08 09:33:12;;;;;;;28.65;18.48;;;231.20;2252.80;;;;;;4829042;29;20038;-79
2023/04/08 09:35:38;;;;;;;27.58;18.73;;;256.00;2252.80;;;;;;4845044;29;20506;-79
2023/04/08 09:38:04;;;;;;;27.58;19.02;;;256.70;2252.80;;;;;;4844816;29;20034;-79
2023/04/08 09:40:37;;;;;;;26.75;18.15;;;;;;;;;;4844942;29;20104;-79
2023/04/08 09:43:05;;;;;;;25.08;17.83;;;;;;;;;;4829519;29;20034;-79
2023/04/08 09:45:33;;;;;;;23.52;16.50;;;;;;;;;;4844392;29;20528;-79
2023/04/08 09:48:06;;;;;;;24.05;16.80;;;;;;;;;;4844023;29;20111;-78
2023/04/08 09:50:32;;;;;;;27.85;18.58;;;;;;;;;;4844166;29;20036;-79
2023/04/08 09:53:19;;;;;;;30.15;19.52;;;;;;;;;;4843348;29;20484;-79
2023/04/08 09:55:48;;;;;;;25.20;17.92;;;;;;;;;;4843949;29;20029;-79
2023/04/08 09:58:33;;;;;;;24.33;17.52;;;;;;;;;;4843427;29;20102;-78
2023/04/08 10:00:59;;;;;;;;;;;;;;;;;;4843802;29;20136;-78
2023/04/08 10:03:29;;;;;;;28.75;18.67;;;332.90;2329.60;;;;;;4845606;29;19954;-79
2023/04/08 10:05:56;;;;;;;28.58;18.40;;;332.80;2329.60;;;;;;4882305;29;20036;-78
2023/04/08 10:08:26;;;;;;;27.42;19.13;;;;;;;;;;4882666;29;20029;-79
2023/04/08 10:10:53;;;;;;;26.08;18.55;;;;;;;;;;4882577;29;20037;-78
2023/04/08 10:13:20;;;;;;;24.70;17.77;;;307.90;2304.00;;;;;;4881010;29;20035;-78
2023/04/08 10:15:47;;;;;;;26.15;17.95;;;307.50;2304.00;;;;;;4881914;29;20039;-78
2023/04/08 10:18:13;;;;;;;28.83;19.90;;;307.90;2304.00;;;;;;4882560;29;20036;-78
2023/04/08 10:20:39;;;;;;;26.58;18.40;;;307.20;2304.00;;;;;;4881991;29;20117;-78
2023/04/08 10:23:06;;;;;;;27.45;19.42;;;282.30;2278.40;;;;;;4880848;29;20032;-78
2023/04/08 10:25:42;;;;;;;30.05;20.95;;;308.00;2304.00;;;;;;4882380;29;20021;-78
2023/04/08 10:28:26;;;;;;;28.25;19.40;;;308.10;2304.00;;;;;;4882078;29;20045;-78
2023/04/08 10:30:54;;;;;;;26.25;19.30;;;333.40;2329.60;;;;;;4881925;29;20033;-78
2023/04/08 10:33:28;;;;;;;28.45;19.85;;;358.40;2329.60;;;;;;4881942;29;20048;-78
2023/04/08 10:36:11;;;;;;;26.30;18.55;;;333.60;2329.60;;;;;;4881878;29;20025;-78
2023/04/08 10:38:41;;;;;;;28.80;20.33;;;358.50;2304.00;;;;;;4881756;29;20033;-78
2023/04/08 10:41:09;;;;;;;30.73;22.63;;;359.10;2278.40;;;;;;4881800;29;20094;-78
2023/04/08 10:43:35;;;;;;;25.63;18.13;;;358.70;2329.60;;;;;;4881562;29;20081;-78
2023/04/08 10:46:02;;;;;;;23.42;17.55;;;359.00;2252.80;;;;;;4881711;29;20112;-77
2023/04/08 10:48:28;;;;;;;23.83;17.70;;;359.20;2099.20;;;;;;4881470;29;20119;-78
2023/04/08 10:51:01;;;;;;;23.40;17.27;;;358.60;2176.00;;;;;;4881945;29;20527;-78
2023/04/08 10:53:35;;;;;;;21.63;16.27;;;358.90;2252.80;;;;;;4879602;29;20124;-78
2023/04/08 10:56:05;;;;;;;18.60;14.23;;;359.30;2150.40;;;;;;4881876;29;20037;-78
2023/04/08 10:58:32;;;;;;;20.15;14.75;;;384.10;1971.20;;;;;;4880879;29;20033;-78
2023/04/08 11:01:07;;;;;;;17.70;13.93;;;359.30;2099.20;;;;;;4890170;29;20064;-78
2023/04/08 11:03:34;;;;;;;19.48;15.40;;;384.50;1971.20;;;;;;4899895;29;20036;-78
2023/04/08 11:06:01;;;;;;;17.00;13.93;;;384.50;1996.80;;;;;;4882952;29;20029;-78
2023/04/08 11:08:31;;;;;;;20.92;15.15;;;384.50;1996.80;;;;;;4899662;29;20048;-78
2023/04/08 11:11:00;;;;;;;20.92;14.88;;;384.10;1996.80;;;;;;4899637;29;20037;-78
2023/04/08 11:13:27;;;;;;;18.83;14.75;;;384.30;2022.40;;;;;;4899835;29;20086;-78
2023/04/08 11:15:54;;;;;;;17.50;13.50;;;384.50;1971.20;;;;;;4899612;29;20025;-78
2023/04/08 11:18:21;;;;;;;18.98;15.20;;;384.20;1920.00;;;;;;4899128;29;20025;-78
2023/04/08 11:20:50;;;;;;;18.05;13.80;;;384.20;1971.20;;;;;;4899264;29;20029;-78
2023/04/08 11:23:16;;;;;;;19.70;15.38;;;359.30;1945.60;;;;;;4883096;29;20025;-77
2023/04/08 11:25:44;;;;;;;19.60;15.27;;;359.30;1996.80;;;;;;4903081;29;20032;-77
2023/04/08 11:28:14;;;;;;;17.98;13.30;;;359.20;2022.40;;;;;;4902478;29;20024;-77
2023/04/08 11:30:40;;;;;;;16.23;12.75;;;359.00;1996.80;;;;;;4900477;29;20462;-78
2023/04/08 11:33:06;;;;;;;18.52;13.73;;;359.10;2022.40;;;;;;4882324;29;20039;-78
2023/04/08 11:35:32;;;;;;;19.92;15.15;;;359.00;2073.60;;;;;;4899165;29;20032;-78
2023/04/08 11:37:58;;;;;;;19.17;14.82;;;358.90;2073.60;;;;;;4882660;29;20032;-78
2023/04/08 11:40:25;;;;;;;19.10;14.75;;;358.90;2073.60;;;;;;4882177;29;20394;-78
2023/04/08 11:42:51;;;;;;;18.92;14.75;;;358.80;2073.60;;;;;;4898844;29;20431;-78
2023/04/08 11:45:20;;;;;;;22.05;16.63;;;358.90;2073.60;;;;;;4882447;29;20111;-78
2023/04/08 11:47:47;;;;;;;24.25;18.58;;;333.70;2201.60;;;;;;4899312;29;20033;-78
2023/04/08 11:50:23;;;;;;;23.23;18.75;;;358.70;2304.00;;;;;;4882516;29;20032;-78
2023/04/08 11:52:50;;;;;;;25.25;19.23;;;358.70;2278.40;;;;;;4882532;29;20044;-78
2023/04/08 11:55:30;;;;;;;22.55;16.67;;;358.80;2278.40;;;;;;4882122;29;20036;-78
2023/04/08 11:58:01;;;;;;;20.42;15.60;;;358.70;2176.00;;;;;;4898963;29;20091;-78
2023/04/08 12:00:27;;;;;;;24.10;16.55;;;359.00;2176.00;;;;;;4898766;29;20048;-78
2023/04/08 12:02:52;;;;;;;20.95;16.05;;;359.20;2073.60;;;;;;4881803;29;20494;-78
2023/04/08 12:05:19;;;;;;;21.48;16.58;;;359.20;2048.00;;;;;;4898640;29;20029;-77
2023/04/08 12:07:45;;;;;;;19.85;15.30;;;384.00;2073.60;;;;;;4898813;29;20044;-78
2023/04/08 12:10:11;;;;;;;23.35;16.77;;;359.10;2048.00;;;;;;4881473;29;20499;-78
2023/04/08 12:12:37;;;;;;;26.80;19.17;;;358.90;2099.20;;;;;;4881644;29;20040;-78
2023/04/08 12:15:04;;;;;;;26.88;20.10;;;358.80;2201.60;;;;;;4898512;29;20035;-78
2023/04/08 12:17:30;;;;;;;28.70;19.77;;;358.60;2252.80;;;;;;4881868;29;20032;-79
2023/04/08 12:19:56;;;;;;;27.23;19.20;;;358.40;2227.20;;;;;;4881962;29;20431;-78
2023/04/08 12:22:22;;;;;;;21.85;16.52;;;333.70;2304.00;;;;;;4898602;29;20124;-78
2023/04/08 12:24:48;;;;;;;22.23;16.38;;;333.50;2329.60;;;;;;4899027;29;20036;-78
2023/04/08 12:27:13;;;;;;;33.65;23.67;;;333.50;2329.60;;;;;;4881833;29;20618;-78
2023/04/08 12:29:39;;;;;;;27.40;19.45;;;333.30;2329.60;;;;;;4898402;29;20025;-78
2023/04/08 12:32:05;;;;;;;30.05;21.08;;;333.20;2329.60;;;;;;4898200;29;20383;-78